Latest Weather Observations for Yarrawonga

IDN60801

Issued at 6:32 pm EST Tuesday 7 July 2015 (issued every 30 minutes, with the page automatically refreshed every 10 minutes)

About weather observations | Map of weather stations | Latest weather observations for NSW | Other Formats
Station Details ID: 081124 Name: YARRAWONGA Lat: -36.03 Lon: 146.03 Height: 128.9 m
Data from the previous 72 hours. | See also: Recent months at Yarrawonga
Date/Time
EST
Temp
°C
App
Temp
°C
Dew
Point
Rel
Hum
%
Delta-T
°C
Wind Press
QNH
hPa
Press
MSL
hPa
Rain
since 9 am
mm
Dir
 
Spd
km/h
Gust
km/h
Spd
kts
Gust
kts
07/06:30pm 7.7 7.1 7.4 98 0.1 CALM 0 0 0 0 1023.6 1023.8 0.2
07/06:00pm 8.1 7.5 7.2 94 0.4 CALM 0 0 0 0 1023.4 1023.6 0.2
07/05:30pm 9.7 9.0 7.0 83 1.3 CALM 0 0 0 0 1022.9 1023.2 0.2
07/05:00pm 11.4 10.5 6.1 70 2.5 CALM 0 0 0 0 1022.7 1023.0 0.2
07/04:30pm 12.4 11.1 6.0 65 3.0 SW 2 4 1 2 1022.5 1022.8 0.2
07/04:00pm 13.5 12.3 6.6 63 3.3 WSW 2 4 1 2 1022.2 1022.5 0.2
07/03:30pm 13.4 12.2 6.5 63 3.3 NNE 2 4 1 2 1022.1 1022.4 0.2
07/03:00pm 13.2 11.6 6.5 64 3.2 NE 4 7 2 4 1022.0 1022.3 0.2
07/02:30pm 13.3 12.0 6.2 62 3.4 N 2 7 1 4 1021.8 1022.1 0.2
07/02:00pm 13.6 12.3 6.2 61 3.5 NNE 2 4 1 2 1021.8 1022.1 0.2
07/01:30pm 13.5 12.4 6.8 64 3.3 ESE 2 6 1 3 1021.9 1022.2 0.0
07/01:00pm 12.6 11.0 6.4 66 3.0 ESE 4 7 2 4 1022.0 1022.3 0.0
07/12:30pm 12.3 10.8 7.0 70 2.6 ESE 4 9 2 5 1022.2 1022.5 0.0
07/12:00pm 12.3 10.9 7.4 72 2.4 ESE 4 6 2 3 1022.4 1022.7 0.0
07/11:30am 11.4 9.6 7.3 76 2.0 E 6 9 3 5 1022.7 1023.0 0.0
07/11:00am 11.1 9.3 8.1 82 1.5 E 7 11 4 6 1022.8 1023.1 0.0
07/10:30am 10.4 8.7 8.3 87 1.0 E 7 9 4 5 1022.8 1023.1 0.0
07/10:00am 9.8 8.6 9.5 98 0.1 ESE 6 7 3 4 1022.6 1022.9 0.0
07/09:30am 8.2 7.0 8.1 99 0.0 SE 4 6 2 3 1022.3 1022.6 0.0
07/09:00am 7.6 7.0 7.6 100 0.0 CALM 0 0 0 0 1022.2 1022.5 1.2
07/08:30am 5.3 4.2 5.2 99 0.0 CALM 0 0 0 0 1021.8 1022.1 1.2
07/08:00am 2.4 0.8 2.3 99 0.0 CALM 0 2 0 1 1021.6 1021.9 1.2
07/07:30am 2.4 0.0 2.3 99 0.0 ENE 4 6 2 3 1021.3 1021.6 1.2
07/07:00am 2.8 0.9 2.7 99 0.0 SE 2 4 1 2 1021.0 1021.3 1.2
07/06:30am 2.6 -0.1 2.5 99 0.0 SE 6 7 3 4 1020.6 1020.9 1.2
07/06:00am 2.5 -0.8 2.4 99 0.0 SE 9 11 5 6 1020.2 1020.5 1.2
07/05:30am 3.1 0.8 3.0 99 0.0 ESE 4 6 2 3 1020.0 1020.3 1.2
07/05:00am 3.5 0.9 3.4 99 0.0 ESE 6 9 3 5 1019.7 1020.0 1.2
07/04:30am 3.9 0.8 3.8 99 0.0 ESE 9 11 5 6 1019.5 1019.8 1.2
07/04:00am 3.5 0.9 3.4 99 0.0 ESE 6 9 3 5 1019.4 1019.7 1.2
07/03:30am 3.8 1.3 3.7 99 0.0 E 6 7 3 4 1019.4 1019.7 1.2
07/03:00am 5.1 3.2 5.0 99 0.0 E 4 6 2 3 1019.4 1019.7 1.2
07/02:30am 5.7 3.6 5.6 99 0.0 ESE 6 6 3 3 1019.6 1019.9 1.2
07/02:00am 5.7 3.6 5.6 99 0.0 ESE 6 7 3 4 1019.4 1019.7 1.2
07/01:30am 5.5 4.5 5.4 99 0.0 CALM 0 4 0 2 1019.3 1019.6 1.2
07/01:00am 5.0 2.5 4.9 99 0.0 ESE 7 9 4 5 1019.0 1019.3 1.2
07/12:30am 3.3 0.7 3.2 99 0.0 ESE 6 9 3 5 1019.1 1019.4 1.2
07/12:00am 3.3 0.7 3.2 99 0.0 ESE 6 7 3 4 1019.1 1019.4 1.2
 
Date/Time
EST
Temp
°C
App
Temp
°C
Dew
Point
Rel
Hum
%
Delta-T
°C
Wind Press
QNH
hPa
Press
MSL
hPa
Rain
since 9 am
mm
Dir
 
Spd
km/h
Gust
km/h
Spd
kts
Gust
kts
06/11:30pm 3.0 0.3 2.9 99 0.0 SE 6 7 3 4 1019.1 1019.4 1.2
06/11:00pm 3.6 0.9 3.5 99 0.0 ESE 7 9 4 5 1019.1 1019.4 1.2
06/10:30pm 3.8 1.3 3.7 99 0.0 E 6 7 3 4 1019.1 1019.4 1.2
06/10:00pm 4.4 1.8 4.3 99 0.0 E 7 9 4 5 1018.9 1019.2 1.2
06/09:30pm 4.6 2.1 4.5 99 0.0 ESE 7 7 4 4 1018.9 1019.2 1.2
06/09:00pm 5.4 3.2 5.3 99 0.0 E 6 7 3 4 1018.7 1019.0 1.2
06/08:30pm 6.5 3.6 6.4 99 0.0 ENE 11 13 6 7 1018.3 1018.5 1.2
06/08:00pm 7.1 4.7 7.0 99 0.0 E 9 11 5 6 1018.5 1018.7 1.2
06/07:30pm 7.5 5.6 7.4 99 0.0 E 7 11 4 6 1018.5 1018.7 1.2
06/07:00pm 7.4 5.1 7.3 99 0.0 E 9 13 5 7 1018.4 1018.6 1.2
06/06:30pm 7.6 5.7 7.5 99 0.0 ENE 7 7 4 4 1018.4 1018.6 1.2
06/06:00pm 7.8 6.1 7.5 98 0.1 E 6 7 3 4 1018.1 1018.3 0.8
06/05:30pm 8.2 6.6 7.9 98 0.1 ENE 6 7 3 4 1017.6 1017.8 0.4
06/05:00pm 8.6 7.0 7.8 95 0.4 ENE 6 7 3 4 1017.5 1017.7 0.0
06/04:30pm 9.0 7.3 7.5 90 0.7 ENE 6 7 3 4 1017.3 1017.5 0.0
06/04:00pm 9.4 7.6 7.0 85 1.1 ENE 6 9 3 5 1017.3 1017.5 0.0
06/03:30pm 9.6 8.1 6.7 82 1.4 NE 4 7 2 4 1017.2 1017.4 0.0
06/03:00pm 9.7 7.0 5.7 76 1.8 NE 9 13 5 7 1016.9 1017.1 0.0
06/02:30pm 10.3 8.0 5.9 74 2.0 NNE 7 9 4 5 1017.3 1017.5 0.0
06/02:00pm 9.8 7.5 5.8 76 1.8 NNE 7 9 4 5 1017.4 1017.6 0.0
06/01:30pm 9.7 7.7 6.2 79 1.6 NNE 6 9 3 5 1017.4 1017.6 0.0
06/01:00pm 9.4 7.3 6.5 82 1.4 NNE 7 9 4 5 1017.8 1018.0 0.0
06/12:30pm 9.2 7.4 7.0 86 1.0 N 6 9 3 5 1018.0 1018.2 0.0
06/12:00pm 8.3 6.6 7.7 96 0.3 NNE 6 7 3 4 1018.2 1018.4 0.0
06/11:30am 8.1 6.4 7.5 96 0.3 N 6 7 3 4 1018.6 1018.9 0.0
06/11:00am 7.8 6.1 7.5 98 0.1 N 6 7 3 4 1018.8 1019.1 0.0
06/10:30am 7.5 6.1 7.2 98 0.1 NNE 4 6 2 3 1019.0 1019.3 0.0
06/10:00am 7.1 5.6 7.0 99 0.0 NNE 4 6 2 3 1018.9 1019.2 0.0
06/09:30am 6.3 5.0 6.2 99 0.0 NNE 2 4 1 2 1018.9 1019.2 0.0
06/09:00am 5.3 3.8 5.2 99 0.0 NNE 2 2 1 1 1019.0 1019.3 0.0
06/08:30am 4.0 1.9 3.9 99 0.0 NNE 4 6 2 3 1018.7 1019.0 0.0
06/08:00am 3.2 1.7 3.1 99 0.0 CALM 0 0 0 0 1018.7 1019.0 0.0
06/07:30am 2.5 0.5 2.4 99 0.0 ENE 2 4 1 2 1018.7 1019.0 0.0
06/07:00am 2.9 1.0 2.8 99 0.0 N 2 4 1 2 1018.7 1019.0 0.0
06/06:30am 2.5 0.5 2.4 99 0.0 SW 2 4 1 2 1018.5 1018.7 0.0
06/06:00am 1.3 -0.5 1.2 99 0.0 CALM 0 0 0 0 1018.6 1018.9 0.0
06/05:30am 0.6 -1.3 0.5 99 0.0 CALM 0 0 0 0 1018.5 1018.7 0.0
06/05:00am 0.1 -2.3 0.0 99 0.0 NNW 2 6 1 3 1018.5 1018.7 0.0
06/04:30am 0.6 -1.3 0.5 99 0.0 CALM 0 0 0 0 1018.5 1018.7 0.0
06/04:00am 0.4 -1.5 0.3 99 0.0 CALM 0 0 0 0 1018.6 1018.9 0.0
06/03:30am 0.4 -1.9 0.3 99 0.0 SSE 2 4 1 2 1018.8 1019.1 0.0
06/03:00am 0.4 -2.3 0.3 99 0.0 SSE 4 6 2 3 1018.9 1019.2 0.0
06/02:30am 0.5 -2.2 0.4 99 0.0 SSE 4 6 2 3 1019.2 1019.5 0.0
06/02:00am 1.3 -1.6 1.2 99 0.0 SSE 6 6 3 3 1019.4 1019.7 0.0
06/01:30am 1.9 0.2 1.8 99 0.0 CALM 0 0 0 0 1019.4 1019.7 0.0
06/01:00am 3.1 1.6 3.0 99 0.0 CALM 0 0 0 0 1019.6 1019.9 0.0
06/12:30am 3.1 1.2 2.8 98 0.1 E 2 4 1 2 1019.9 1020.2 0.0
06/12:00am 3.9 2.1 3.6 98 0.1 NNE 2 4 1 2 1020.1 1020.4 0.0
 
Date/Time
EST
Temp
°C
App
Temp
°C
Dew
Point
Rel
Hum
%
Delta-T
°C
Wind Press
QNH
hPa
Press
MSL
hPa
Rain
since 9 am
mm
Dir
 
Spd
km/h
Gust
km/h
Spd
kts
Gust
kts
05/11:30pm 5.2 3.3 4.9 98 0.1 NNW 4 6 2 3 1020.2 1020.5 0.0
05/11:00pm 5.9 3.8 5.6 98 0.1 NE 6 6 3 3 1020.2 1020.5 0.0
05/10:30pm 5.3 3.8 5.0 98 0.1 NNE 2 4 1 2 1020.3 1020.6 0.0
05/10:00pm 4.8 3.6 4.5 98 0.1 CALM 0 0 0 0 1020.5 1020.8 0.0
05/09:30pm 4.6 2.6 4.3 98 0.1 E 4 6 2 3 1020.4 1020.7 0.0
05/09:00pm 4.5 2.1 4.2 98 0.1 E 6 7 3 4 1020.4 1020.7 0.0
05/08:30pm 6.2 4.0 5.2 93 0.4 NE 6 6 3 3 1020.4 1020.7 0.0
05/08:00pm 7.3 5.2 5.8 90 0.7 NE 6 6 3 3 1020.3 1020.6 0.0
05/07:30pm 7.9 6.0 5.0 82 1.3 NE 4 4 2 2 1020.4 1020.7 0.0
05/07:00pm 8.5 7.5 5.4 81 1.4 CALM 0 0 0 0 1020.5 1020.8 0.0
05/06:30pm 8.6 6.4 5.4 80 1.4 NNE 6 6 3 3 1020.6 1020.9 0.0
05/06:00pm 8.9 6.7 5.3 78 1.6 N 6 6 3 3 1020.4 1020.7 0.0
05/05:30pm 9.7 7.5 5.5 75 1.9 N 6 6 3 3 1020.3 1020.6 0.0
05/05:00pm 10.2 8.2 4.6 68 2.5 NNW 4 6 2 3 1020.3 1020.6 0.0
05/04:30pm 10.3 8.6 5.7 73 2.1 NNE 4 6 2 3 1020.4 1020.7 0.0
05/04:00pm 10.7 8.2 5.0 68 2.6 ENE 7 9 4 5 1020.3 1020.6 0.0
05/03:30pm 11.2 9.3 4.7 64 3.0 NE 4 7 2 4 1020.2 1020.5 0.0
05/03:00pm 11.4 9.4 4.4 62 3.2 NNE 4 9 2 5 1020.4 1020.7 0.0
05/02:30pm 11.4 9.0 4.4 62 3.2 N 6 9 3 5 1020.5 1020.8 0.0
05/02:00pm 11.5 9.2 4.7 63 3.1 NE 6 9 3 5 1020.7 1021.0 0.0
05/01:30pm 11.1 8.7 4.3 63 3.1 NNE 6 7 3 4 1020.9 1021.2 0.0
05/01:00pm 10.6 8.2 4.1 64 2.9 NNE 6 9 3 5 1021.3 1021.6 0.0
05/12:30pm 10.0 7.5 4.6 69 2.4 NNE 7 11 4 6 1021.9 1022.2 0.0
05/12:00pm 9.9 7.5 4.5 69 2.4 NNE 6 9 3 5 1022.1 1022.4 0.0
05/11:30am 9.3 7.5 5.3 76 1.8 ENE 4 6 2 3 1022.9 1023.2 0.0
05/11:00am 9.6 7.8 5.4 75 1.9 NNE 4 6 2 3 1023.4 1023.6 0.0
05/10:30am 8.3 7.0 5.9 85 1.1 ENE 2 4 1 2 1023.6 1023.8 0.0
05/10:00am 7.4 6.3 7.1 98 0.1 ENE 2 4 1 2 1023.6 1023.8 0.0
05/09:30am 6.0 4.3 5.9 99 0.0 NNE 4 4 2 2 1023.6 1023.8 0.0
05/09:00am 4.8 2.5 4.7 99 0.0 N 6 7 3 4 1023.4 1023.6 0.0
05/08:30am 3.4 1.2 3.3 99 0.0 NE 4 4 2 2 1023.4 1023.6 0.0
05/08:00am 1.7 -1.2 1.6 99 0.0 NE 6 6 3 3 1023.3 1023.5 0.0
05/07:30am 0.2 -2.5 0.1 99 0.0 ENE 4 4 2 2 1023.4 1023.6 0.0
05/07:00am 1.1 -0.7 1.0 99 0.0 CALM 0 0 0 0 1023.3 1023.5 0.0
05/06:30am 1.4 -0.4 1.3 99 0.0 CALM 0 0 0 0 1023.1 1023.3 0.0
05/06:00am 1.5 -0.6 1.4 99 0.0 NE 2 4 1 2 1022.9 1023.2 0.0
05/05:30am 2.0 -0.4 1.9 99 0.0 E 4 4 2 2 1022.8 1023.1 0.0
05/05:00am 1.8 -0.7 1.7 99 0.0 E 4 6 2 3 1022.7 1023.0 0.0
05/04:30am 1.8 -1.1 1.7 99 0.0 E 6 6 3 3 1022.7 1023.0 0.0
05/04:00am 1.3 -1.3 1.2 99 0.0 E 4 6 2 3 1022.7 1023.0 0.0
05/03:30am 1.6 -1.3 1.5 99 0.0 ESE 6 6 3 3 1022.8 1023.1 0.0
05/03:00am 2.0 -0.4 1.9 99 0.0 ESE 4 6 2 3 1022.9 1023.2 0.0
05/02:30am 2.6 1.0 2.5 99 0.0 CALM 0 0 0 0 1022.9 1023.2 0.0
05/02:00am 2.9 1.4 2.8 99 0.0 CALM 0 0 0 0 1023.1 1023.3 0.0
05/01:30am 3.9 1.8 3.8 99 0.0 NNE 4 4 2 2 1022.9 1023.2 0.0
05/01:00am 5.0 3.1 4.7 98 0.1 NNE 4 4 2 2 1023.1 1023.3 0.0
05/12:30am 5.6 3.4 5.3 98 0.1 ESE 6 6 3 3 1023.4 1023.6 0.0
05/12:00am 6.2 5.3 5.9 98 0.1 CALM 0 0 0 0 1023.7 1023.9 0.0
 
Date/Time
EST
Temp
°C
App
Temp
°C
Dew
Point
Rel
Hum
%
Delta-T
°C
Wind Press
QNH
hPa
Press
MSL
hPa
Rain
since 9 am
mm
Dir
 
Spd
km/h
Gust
km/h
Spd
kts
Gust
kts
04/11:30pm 6.5 5.2 6.2 98 0.1 NE 2 4 1 2 1023.8 1024.0 0.0
04/11:00pm 6.4 4.7 6.1 98 0.1 ENE 4 4 2 2 1023.8 1024.0 0.0
04/10:30pm 6.6 5.8 6.3 98 0.1 CALM 0 0 0 0 1023.9 1024.1 0.0
04/10:00pm 6.5 5.6 6.2 98 0.1 CALM 0 0 0 0 1024.0 1024.2 0.0
04/09:30pm 6.4 5.5 6.1 98 0.1 CALM 0 0 0 0 1024.1 1024.3 0.0
04/09:00pm 6.2 5.3 5.9 98 0.1 CALM 0 0 0 0 1024.1 1024.3 0.0
04/08:30pm 6.2 4.9 5.9 98 0.1 NE 2 4 1 2 1024.1 1024.3 0.0
04/08:00pm 6.0 5.0 5.7 98 0.1 CALM 0 0 0 0 1024.0 1024.2 0.0
04/07:30pm 5.9 4.9 5.6 98 0.1 CALM 0 0 0 0 1024.0 1024.2 0.0
04/07:00pm 5.8 3.5 4.6 92 0.5 NE 6 7 3 4 1023.6 1023.8 0.0

Other Formats:

Comma delimited format used in spreadsheet applications
http://www.bom.gov.au/fwo/IDN60801/IDN60801.94862.axf

JavaScript Object Notation format (JSON) in row-major order
http://www.bom.gov.au/fwo/IDN60801/IDN60801.94862.json